createdAt,value
2022-11-26T00:00:59.432Z,19.90
2022-11-26T00:02:22.847Z,22.05
2022-11-26T00:03:43.743Z,35.42
2022-11-26T00:06:29.188Z,28.23
2022-11-26T00:07:54.926Z,35.30
2022-11-26T00:09:18.067Z,26.80
2022-11-26T00:10:38.904Z,24.83
2022-11-26T00:11:59.545Z,26.67
2022-11-26T00:13:21.821Z,32.50
2022-11-26T00:14:42.285Z,29.38
2022-11-26T00:16:03.154Z,24.45
2022-11-26T00:17:23.748Z,34.73
2022-11-26T00:18:44.476Z,25.80
2022-11-26T00:20:06.257Z,31.75
2022-11-26T00:21:26.855Z,37.78
2022-11-26T00:22:49.801Z,32.03
2022-11-26T00:24:24.061Z,37.50
2022-11-26T00:25:46.638Z,30.23
2022-11-26T00:27:09.901Z,29.48
2022-11-26T00:28:32.097Z,30.25
2022-11-26T00:29:52.986Z,33.65
2022-11-26T00:31:15.879Z,36.08
2022-11-26T00:32:36.648Z,31.83
2022-11-26T00:33:57.232Z,25.38
2022-11-26T00:35:18.214Z,24.77
2022-11-26T00:36:38.801Z,25.45
2022-11-26T00:37:59.501Z,28.63
2022-11-26T00:39:23.772Z,29.67
2022-11-26T00:40:44.293Z,27.25
2022-11-26T00:42:05.423Z,35.60
2022-11-26T00:43:25.757Z,30.00
2022-11-26T00:44:46.264Z,32.67
2022-11-26T00:46:10.415Z,37.92
2022-11-26T00:47:31.357Z,32.17
2022-11-26T00:48:51.723Z,35.17
2022-11-26T00:50:17.978Z,38.72
2022-11-26T00:51:38.763Z,27.45
2022-11-26T00:52:59.157Z,30.33
2022-11-26T00:54:21.869Z,33.95
2022-11-26T00:55:44.668Z,37.92
2022-11-26T00:57:05.377Z,27.48
2022-11-26T00:58:28.421Z,38.38
2022-11-26T00:59:48.651Z,43.38
2022-11-26T01:01:11.526Z,42.33
2022-11-26T01:02:32.258Z,34.65
2022-11-26T01:03:53.150Z,40.47
2022-11-26T01:05:13.812Z,31.42
2022-11-26T01:06:35.751Z,35.35
2022-11-26T01:07:58.753Z,37.58
2022-11-26T01:09:22.059Z,41.28
2022-11-26T01:10:42.341Z,42.15
2022-11-26T01:12:02.622Z,33.20
2022-11-26T01:13:23.428Z,40.73
2022-11-26T01:14:43.890Z,41.90
2022-11-26T01:16:12.290Z,32.17
2022-11-26T01:17:33.047Z,35.65
2022-11-26T01:18:56.359Z,44.03
2022-11-26T01:20:27.703Z,37.50
2022-11-26T01:21:48.063Z,29.23
2022-11-26T01:23:11.000Z,33.88
2022-11-26T01:24:32.985Z,33.55
2022-11-26T01:25:53.484Z,36.25
2022-11-26T01:27:14.212Z,29.55
2022-11-26T01:28:35.012Z,37.63
2022-11-26T01:29:55.646Z,47.65
2022-11-26T01:31:17.596Z,28.03
2022-11-26T01:32:38.291Z,34.45
2022-11-26T01:33:58.607Z,36.95
2022-11-26T01:35:21.123Z,38.92
2022-11-26T01:36:41.855Z,34.30
2022-11-26T01:38:02.544Z,42.95
2022-11-26T01:39:23.840Z,40.35
2022-11-26T01:41:01.831Z,30.35
2022-11-26T01:42:25.475Z,31.52
2022-11-26T01:43:48.088Z,29.52
2022-11-26T01:45:15.431Z,36.67
2022-11-26T01:46:37.063Z,33.75
2022-11-26T01:47:57.324Z,32.22
2022-11-26T01:50:52.852Z,34.65
2022-11-26T01:52:17.763Z,38.63
2022-11-26T01:53:46.885Z,39.60
2022-11-26T01:55:10.519Z,36.35
2022-11-26T01:56:35.921Z,39.53
2022-11-26T01:57:56.764Z,51.58
2022-11-26T01:59:19.850Z,28.42
2022-11-26T02:00:41.229Z,41.05
2022-11-26T02:02:02.126Z,29.92
2022-11-26T02:03:23.338Z,37.63
2022-11-26T02:04:50.548Z,39.88
2022-11-26T02:06:15.569Z,39.78
2022-11-26T02:07:37.068Z,31.52
2022-11-26T02:08:59.207Z,32.28
2022-11-26T02:10:20.064Z,26.35
2022-11-26T02:11:42.239Z,37.30
2022-11-26T02:13:03.325Z,33.63
2022-11-26T02:14:26.178Z,37.45
2022-11-26T02:15:52.416Z,39.25
2022-11-26T02:17:20.559Z,35.67
2022-11-26T02:18:46.404Z,33.53
2022-11-26T02:20:46.104Z,31.75
2022-11-26T02:22:17.099Z,42.50
2022-11-26T02:24:09.140Z,30.83
2022-11-26T02:25:39.621Z,30.15
2022-11-26T02:27:14.683Z,36.72
2022-11-26T02:28:48.550Z,35.60
2022-11-26T02:30:11.639Z,43.47
2022-11-26T02:31:36.187Z,30.60
2022-11-26T02:33:00.166Z,38.33
2022-11-26T02:34:25.176Z,38.22
2022-11-26T02:35:47.544Z,36.10
2022-11-26T02:37:10.971Z,49.05
2022-11-26T02:38:32.281Z,39.08
2022-11-26T02:39:53.066Z,32.33
2022-11-26T02:41:13.567Z,44.97
2022-11-26T02:42:35.261Z,35.20
2022-11-26T02:43:55.793Z,32.38
2022-11-26T02:45:19.649Z,36.13
2022-11-26T02:46:41.918Z,38.25
2022-11-26T02:48:03.916Z,43.65
2022-11-26T02:49:25.404Z,35.03
2022-11-26T02:50:48.247Z,41.10
2022-11-26T02:52:09.914Z,43.55
2022-11-26T02:53:33.671Z,32.13
2022-11-26T02:54:55.682Z,34.92
2022-11-26T02:56:20.554Z,48.72
2022-11-26T02:57:45.195Z,40.63
2022-11-26T02:59:06.110Z,37.05
2022-11-26T03:00:28.010Z,43.63
2022-11-26T03:01:51.895Z,42.08
2022-11-26T03:03:14.560Z,37.95
2022-11-26T03:04:39.366Z,47.45
2022-11-26T03:06:05.175Z,42.88
2022-11-26T03:07:26.347Z,34.83
2022-11-26T03:08:47.247Z,48.40
2022-11-26T03:10:08.414Z,47.30
2022-11-26T03:11:28.784Z,45.70
2022-11-26T03:12:49.261Z,42.78
2022-11-26T03:14:09.961Z,47.28
2022-11-26T03:15:31.868Z,36.92
2022-11-26T03:16:52.515Z,41.58
2022-11-26T03:18:13.392Z,39.23
2022-11-26T03:19:33.999Z,40.70
2022-11-26T03:20:54.262Z,47.10
2022-11-26T03:22:15.329Z,39.35
2022-11-26T03:24:56.581Z,34.50
2022-11-26T03:26:16.944Z,40.05
2022-11-26T03:27:37.744Z,46.95
2022-11-26T03:28:58.164Z,45.50
2022-11-26T03:30:18.850Z,39.17
2022-11-26T03:31:40.576Z,41.63
2022-11-26T03:33:01.008Z,44.38
2022-11-26T03:34:21.823Z,48.00
2022-11-26T03:35:42.274Z,45.10
2022-11-26T03:37:02.469Z,37.03
2022-11-26T03:38:22.922Z,45.30
2022-11-26T03:39:43.599Z,45.87
2022-11-26T03:41:05.453Z,47.67
2022-11-26T03:42:26.264Z,42.25
2022-11-26T03:43:46.804Z,44.78
2022-11-26T03:45:08.086Z,46.60
2022-11-26T03:46:28.676Z,40.50
2022-11-26T03:47:50.526Z,51.95
2022-11-26T03:49:10.920Z,51.78
2022-11-26T03:50:31.281Z,42.13
2022-11-26T03:51:52.083Z,47.17
2022-11-26T03:53:12.630Z,43.33
2022-11-26T03:54:33.281Z,55.08
2022-11-26T03:55:54.028Z,47.70
2022-11-26T03:57:14.994Z,49.25
2022-11-26T03:58:36.005Z,34.92
2022-11-26T03:59:56.514Z,40.13
2022-11-26T04:01:17.071Z,43.30
2022-11-26T04:02:37.892Z,51.22
2022-11-26T04:03:59.969Z,46.90
2022-11-26T04:05:20.986Z,37.40
2022-11-26T04:06:41.575Z,42.10
2022-11-26T04:08:02.088Z,45.63
2022-11-26T04:09:22.685Z,42.22
2022-11-26T04:10:43.180Z,41.58
2022-11-26T04:12:04.194Z,39.58
2022-11-26T04:13:24.771Z,40.90
2022-11-26T04:14:45.328Z,50.37
2022-11-26T04:16:06.584Z,51.90
2022-11-26T04:17:27.122Z,43.90
2022-11-26T04:18:48.030Z,44.55
2022-11-26T04:20:10.967Z,50.13
2022-11-26T04:21:31.428Z,52.17
2022-11-26T04:22:51.843Z,41.05
2022-11-26T04:24:12.375Z,49.53
2022-11-26T04:25:33.036Z,64.38
2022-11-26T04:26:53.480Z,53.20
2022-11-26T04:28:13.970Z,56.05
2022-11-26T04:29:34.237Z,64.10
2022-11-26T04:30:54.552Z,37.38
2022-11-26T04:32:15.482Z,56.67
2022-11-26T04:33:35.761Z,33.20
2022-11-26T04:34:56.196Z,41.22
2022-11-26T04:36:18.330Z,50.88
2022-11-26T04:37:38.838Z,50.65
2022-11-26T04:38:59.494Z,49.92
2022-11-26T04:40:19.973Z,49.95
2022-11-26T04:41:40.519Z,59.20
2022-11-26T04:43:01.240Z,48.10
2022-11-26T04:44:22.545Z,37.53
2022-11-26T04:47:03.712Z,52.50
2022-11-26T04:48:24.271Z,55.17
2022-11-26T04:49:44.876Z,43.50
2022-11-26T04:51:05.805Z,46.90
2022-11-26T04:52:27.486Z,59.58
2022-11-26T04:53:48.135Z,49.65
2022-11-26T04:55:09.213Z,52.67
2022-11-26T04:56:29.643Z,48.83
2022-11-26T04:57:50.251Z,50.00
2022-11-26T04:59:10.990Z,49.50
2022-11-26T05:00:31.816Z,51.00
2022-11-26T05:01:52.434Z,50.17
2022-11-26T05:03:13.114Z,60.85
2022-11-26T05:04:33.812Z,47.53
2022-11-26T05:05:54.541Z,48.93
2022-11-26T05:07:15.066Z,50.88
2022-11-26T05:08:36.948Z,46.53
2022-11-26T05:09:57.464Z,57.97
2022-11-26T05:11:18.227Z,45.28
2022-11-26T05:12:39.216Z,56.90
2022-11-26T05:13:59.794Z,40.97
2022-11-26T05:15:20.633Z,46.93
2022-11-26T05:16:41.479Z,67.10
2022-11-26T05:18:02.214Z,71.95
2022-11-26T05:19:22.737Z,47.85
2022-11-26T05:20:43.266Z,55.42
2022-11-26T05:22:03.543Z,58.35
2022-11-26T05:23:24.333Z,51.53
2022-11-26T05:24:46.136Z,54.75
2022-11-26T05:26:06.781Z,54.08
2022-11-26T05:27:27.256Z,54.60
2022-11-26T05:28:47.584Z,60.97
2022-11-26T05:30:09.056Z,74.50
2022-11-26T05:31:29.346Z,69.18
2022-11-26T05:32:49.587Z,59.78
2022-11-26T05:34:10.288Z,50.58
2022-11-26T05:35:30.792Z,77.55
2022-11-26T05:36:50.972Z,58.42
2022-11-26T05:38:11.831Z,68.90
2022-11-26T05:39:32.528Z,65.60
2022-11-26T05:40:54.509Z,66.73
2022-11-26T05:42:15.018Z,68.63
2022-11-26T05:43:35.360Z,65.68
2022-11-26T05:44:56.159Z,63.17
2022-11-26T05:46:17.007Z,50.47
2022-11-26T05:47:37.675Z,63.15
2022-11-26T05:48:58.252Z,72.35
2022-11-26T05:50:18.908Z,62.25
2022-11-26T05:51:39.535Z,60.85
2022-11-26T05:53:00.162Z,70.78
2022-11-26T05:54:20.878Z,70.97
2022-11-26T05:55:41.470Z,65.23
2022-11-26T05:57:03.492Z,56.92
2022-11-26T05:58:24.230Z,52.38
2022-11-26T05:59:44.857Z,66.97
2022-11-26T06:01:07.609Z,53.75
2022-11-26T06:02:28.887Z,50.80
2022-11-26T06:03:49.614Z,54.67
2022-11-26T06:05:10.409Z,59.95
2022-11-26T06:06:30.756Z,54.70
2022-11-26T06:07:51.419Z,51.80
2022-11-26T06:09:12.036Z,55.30
2022-11-26T06:10:32.672Z,53.72
2022-11-26T06:11:53.221Z,72.88
2022-11-26T06:13:14.932Z,66.07
2022-11-26T06:14:39.119Z,64.85
2022-11-26T06:16:02.504Z,65.10
2022-11-26T06:17:23.238Z,57.80
2022-11-26T06:18:43.566Z,69.03
2022-11-26T06:20:05.688Z,58.20
2022-11-26T06:21:26.353Z,59.60
2022-11-26T06:22:47.284Z,58.97
2022-11-26T06:24:08.112Z,58.90
2022-11-26T06:25:28.786Z,47.45
2022-11-26T06:26:49.187Z,67.25
2022-11-26T06:28:09.957Z,52.88
2022-11-26T06:29:32.424Z,61.72
2022-11-26T06:30:53.085Z,61.38
2022-11-26T06:32:13.448Z,58.30
2022-11-26T06:33:35.103Z,61.10
2022-11-26T06:34:55.706Z,59.78
2022-11-26T06:36:16.138Z,69.07
2022-11-26T06:37:37.024Z,71.40
2022-11-26T06:38:57.419Z,68.32
2022-11-26T06:40:19.762Z,53.33
2022-11-26T06:41:39.996Z,59.03
2022-11-26T06:43:00.446Z,64.00
2022-11-26T06:44:20.812Z,58.30
2022-11-26T06:45:42.539Z,58.75
2022-11-26T06:47:02.802Z,58.80
2022-11-26T06:48:24.357Z,59.40
2022-11-26T06:51:06.112Z,52.15
2022-11-26T06:52:26.791Z,60.72
2022-11-26T06:53:47.424Z,64.93
2022-11-26T06:55:08.811Z,67.68
2022-11-26T06:56:29.196Z,59.28
2022-11-26T06:57:50.236Z,57.95
2022-11-26T06:59:10.866Z,62.22
2022-11-26T07:00:31.281Z,64.87
2022-11-26T07:01:53.276Z,55.35
2022-11-26T07:03:14.048Z,55.10
2022-11-26T07:04:34.721Z,61.60
2022-11-26T07:05:55.345Z,51.90
2022-11-26T07:07:16.346Z,62.65
2022-11-26T07:08:36.992Z,57.58
2022-11-26T07:09:57.646Z,60.35
2022-11-26T07:11:19.963Z,46.33
2022-11-26T07:12:53.808Z,60.70
2022-11-26T07:14:14.308Z,48.78
2022-11-26T07:15:34.637Z,60.05
2022-11-26T07:18:17.397Z,51.28
2022-11-26T07:19:37.804Z,53.63
2022-11-26T07:21:03.830Z,54.05
2022-11-26T07:22:24.472Z,54.78
2022-11-26T07:23:44.787Z,62.15
2022-11-26T07:25:10.829Z,61.03
2022-11-26T07:26:33.090Z,52.75
2022-11-26T07:27:53.661Z,69.93
2022-11-26T07:29:13.922Z,57.55
2022-11-26T07:30:34.285Z,59.35
2022-11-26T07:31:54.828Z,49.47
2022-11-26T07:33:16.637Z,62.72
2022-11-26T07:34:37.513Z,54.65
2022-11-26T07:35:59.089Z,58.85
2022-11-26T07:37:19.523Z,56.33
2022-11-26T07:38:39.929Z,58.60
2022-11-26T07:40:00.651Z,52.60
2022-11-26T07:41:21.233Z,53.53
2022-11-26T07:42:41.983Z,51.65
2022-11-26T07:44:02.405Z,57.72
2022-11-26T07:45:22.809Z,48.92
2022-11-26T07:46:43.270Z,47.88
2022-11-26T07:48:03.791Z,49.60
2022-11-26T07:49:25.617Z,52.28
2022-11-26T07:50:46.397Z,65.53
2022-11-26T07:52:06.996Z,58.65
2022-11-26T07:53:28.392Z,49.30
2022-11-26T07:54:48.839Z,54.72
2022-11-26T07:56:09.494Z,51.20
2022-11-26T07:57:30.141Z,48.58
2022-11-26T07:58:51.148Z,55.67
2022-11-26T08:00:12.686Z,44.95
2022-11-26T08:01:33.814Z,62.90
2022-11-26T08:02:54.476Z,54.00
2022-11-26T08:04:15.227Z,56.85
2022-11-26T08:05:40.957Z,48.08
2022-11-26T08:07:01.447Z,51.03
2022-11-26T08:08:21.858Z,50.08
2022-11-26T08:09:42.434Z,49.45
2022-11-26T08:11:03.691Z,55.15
2022-11-26T08:12:24.659Z,44.53
2022-11-26T08:13:45.446Z,53.25
2022-11-26T08:15:06.608Z,48.40
2022-11-26T08:16:28.778Z,51.10
2022-11-26T08:17:49.938Z,58.60
2022-11-26T08:19:13.010Z,52.55
2022-11-26T08:20:33.812Z,59.40
2022-11-26T08:21:55.677Z,49.50
2022-11-26T08:23:15.840Z,47.90
2022-11-26T08:24:36.727Z,48.30
2022-11-26T08:27:38.072Z,60.17
2022-11-26T08:28:59.723Z,47.75
2022-11-26T08:30:20.233Z,68.07
2022-11-26T08:31:45.642Z,75.03
2022-11-26T08:33:06.764Z,64.60
2022-11-26T08:34:27.175Z,53.05
2022-11-26T08:36:06.219Z,64.78
2022-11-26T08:37:29.215Z,65.18
2022-11-26T08:38:49.748Z,67.30
2022-11-26T08:40:13.866Z,60.65
2022-11-26T08:41:34.424Z,66.10
2022-11-26T08:42:54.668Z,60.03
2022-11-26T08:44:15.591Z,59.78
2022-11-26T08:45:35.862Z,52.78
2022-11-26T08:46:56.204Z,62.50
2022-11-26T08:48:16.429Z,53.38
2022-11-26T08:49:37.018Z,50.22
2022-11-26T08:50:58.217Z,68.38
2022-11-26T08:52:18.552Z,61.22
2022-11-26T08:53:40.494Z,47.42
2022-11-26T08:55:01.061Z,49.65
2022-11-26T08:56:21.681Z,52.97
2022-11-26T08:57:42.911Z,75.32
2022-11-26T08:59:03.676Z,59.53
2022-11-26T09:00:24.379Z,52.00
2022-11-26T09:01:45.016Z,48.42
2022-11-26T09:03:05.596Z,47.03
2022-11-26T09:04:25.956Z,53.70
2022-11-26T09:05:46.659Z,63.63
2022-11-26T09:07:07.447Z,55.90
2022-11-26T09:08:27.757Z,61.88
2022-11-26T09:09:49.661Z,54.75
2022-11-26T09:11:10.278Z,48.88
2022-11-26T09:12:31.424Z,57.40
2022-11-26T09:13:52.208Z,59.80
2022-11-26T09:15:12.999Z,56.80
2022-11-26T09:16:33.649Z,41.77
2022-11-26T09:17:54.032Z,66.30
2022-11-26T09:19:15.094Z,61.55
2022-11-26T09:20:35.346Z,60.97
2022-11-26T09:21:56.171Z,58.20
2022-11-26T09:23:16.446Z,53.90
2022-11-26T09:24:36.933Z,67.82
2022-11-26T09:25:59.297Z,53.05
2022-11-26T09:27:19.677Z,48.42
2022-11-26T09:28:43.717Z,59.28
2022-11-26T09:30:05.172Z,46.17
2022-11-26T09:31:26.153Z,55.13
2022-11-26T09:32:46.632Z,63.00
2022-11-26T09:34:07.264Z,58.00
2022-11-26T09:35:27.957Z,52.38
2022-11-26T09:36:48.250Z,48.85
2022-11-26T09:38:08.850Z,52.80
2022-11-26T09:39:29.612Z,48.45
2022-11-26T09:40:54.972Z,46.65
2022-11-26T09:42:26.192Z,61.85
2022-11-26T09:43:59.216Z,62.13
2022-11-26T09:45:33.043Z,49.95
2022-11-26T09:47:12.395Z,49.60
2022-11-26T09:48:34.126Z,54.55
2022-11-26T09:49:59.606Z,55.17
2022-11-26T09:51:20.821Z,52.88
2022-11-26T09:52:46.403Z,50.45
2022-11-26T09:54:06.808Z,61.10
2022-11-26T09:55:30.303Z,53.40
2022-11-26T09:56:54.839Z,47.78
2022-11-26T09:58:25.321Z,47.55
2022-11-26T09:59:48.661Z,54.13
2022-11-26T10:01:16.235Z,60.22
2022-11-26T10:02:38.809Z,57.25
2022-11-26T10:03:59.792Z,71.53
2022-11-26T10:05:23.323Z,64.97
2022-11-26T10:06:51.628Z,48.67
2022-11-26T10:08:28.863Z,56.85
2022-11-26T10:09:57.040Z,59.30
2022-11-26T10:11:21.859Z,49.00
2022-11-26T10:13:17.468Z,47.70
2022-11-26T10:14:47.813Z,54.15
2022-11-26T10:16:14.853Z,60.88
2022-11-26T10:17:40.888Z,51.28
2022-11-26T10:19:04.889Z,49.20
2022-11-26T10:20:51.888Z,54.00
2022-11-26T10:22:20.330Z,47.05
2022-11-26T10:23:43.138Z,62.40
2022-11-26T10:25:11.104Z,36.88
2022-11-26T10:26:34.480Z,47.78
2022-11-26T10:27:56.020Z,56.05
2022-11-26T10:30:40.271Z,62.60
2022-11-26T10:32:10.135Z,51.95
2022-11-26T10:33:34.060Z,53.50
2022-11-26T10:34:56.775Z,63.80
2022-11-26T10:36:22.152Z,55.05
2022-11-26T10:37:42.656Z,45.85
2022-11-26T10:39:03.875Z,40.05
2022-11-26T10:40:25.906Z,47.83
2022-11-26T10:41:47.145Z,40.22
2022-11-26T10:43:13.914Z,49.08
2022-11-26T10:44:37.151Z,60.70
2022-11-26T10:45:59.331Z,54.05
2022-11-26T10:47:26.220Z,53.03
2022-11-26T10:48:46.697Z,59.65
2022-11-26T10:50:46.090Z,39.95
2022-11-26T10:52:01.887Z,39.30
2022-11-26T10:53:23.189Z,49.78
2022-11-26T10:54:43.904Z,45.65
2022-11-26T10:56:06.419Z,46.75
2022-11-26T10:57:26.676Z,48.97
2022-11-26T10:58:48.477Z,47.30
2022-11-26T11:00:36.596Z,49.80
2022-11-26T11:02:02.463Z,56.78
2022-11-26T11:03:44.540Z,37.53
2022-11-26T11:05:05.781Z,61.22
2022-11-26T11:06:35.012Z,49.72
2022-11-26T11:07:56.095Z,41.88
2022-11-26T11:09:28.557Z,47.70
2022-11-26T11:10:56.896Z,52.30
2022-11-26T11:12:20.531Z,58.13
2022-11-26T11:13:42.793Z,44.30
2022-11-26T11:15:23.001Z,42.92
2022-11-26T11:16:44.497Z,52.28
2022-11-26T11:18:13.040Z,57.38
2022-11-26T11:19:33.981Z,45.95
2022-11-26T11:20:55.822Z,45.33
2022-11-26T11:22:18.640Z,45.60
2022-11-26T11:25:24.109Z,47.60
2022-11-26T11:26:45.821Z,52.45
2022-11-26T11:28:12.259Z,56.33
2022-11-26T11:29:34.792Z,58.97
2022-11-26T11:31:13.812Z,43.17
2022-11-26T11:32:36.780Z,51.95
2022-11-26T11:34:19.246Z,40.38
2022-11-26T11:35:39.808Z,53.05
2022-11-26T11:37:01.508Z,39.92
2022-11-26T11:38:24.150Z,41.03
2022-11-26T11:39:44.779Z,40.47
2022-11-26T11:41:13.606Z,47.53
2022-11-26T11:42:34.050Z,46.47
2022-11-26T11:44:03.848Z,48.45
2022-11-26T11:45:33.182Z,46.58
2022-11-26T11:47:09.246Z,45.85
2022-11-26T11:48:37.392Z,41.25
2022-11-26T11:50:12.244Z,55.55
2022-11-26T11:51:39.256Z,43.17
2022-11-26T11:53:15.868Z,41.15
2022-11-26T11:54:45.612Z,51.50
2022-11-26T11:56:19.357Z,60.45
2022-11-26T11:57:52.939Z,45.38
2022-11-26T11:59:31.953Z,45.80
2022-11-26T12:00:54.564Z,45.92
2022-11-26T12:02:28.839Z,53.08
2022-11-26T12:04:17.927Z,56.95
2022-11-26T12:05:54.753Z,47.10
2022-11-26T12:07:30.322Z,46.22
2022-11-26T12:09:00.737Z,45.03
2022-11-26T12:10:25.438Z,45.08
2022-11-26T12:11:53.510Z,48.85
2022-11-26T12:13:15.537Z,55.95
2022-11-26T12:16:01.830Z,46.45
2022-11-26T12:17:33.092Z,50.42
2022-11-26T12:18:58.146Z,46.78
2022-11-26T12:20:23.522Z,44.50
2022-11-26T12:21:48.169Z,47.00
2022-11-26T12:23:24.392Z,44.58
2022-11-26T12:24:48.125Z,45.17
2022-11-26T12:26:13.278Z,44.85
2022-11-26T12:27:37.667Z,44.42
2022-11-26T12:29:02.115Z,34.92
2022-11-26T12:30:25.244Z,40.35
2022-11-26T12:31:48.807Z,52.60
2022-11-26T12:33:13.451Z,52.72
2022-11-26T12:34:37.150Z,43.90
2022-11-26T12:36:00.784Z,44.60
2022-11-26T12:37:25.059Z,42.60
2022-11-26T12:38:49.332Z,37.90
2022-11-26T12:40:19.401Z,39.28
2022-11-26T12:41:43.922Z,47.47
2022-11-26T12:43:09.766Z,42.28
2022-11-26T12:44:32.782Z,40.92
2022-11-26T12:45:56.711Z,38.22
2022-11-26T12:47:21.641Z,41.70
2022-11-26T12:48:45.711Z,38.08
2022-11-26T12:50:15.496Z,49.17
2022-11-26T12:51:41.134Z,38.95
2022-11-26T12:53:23.752Z,40.35
2022-11-26T12:54:48.886Z,39.80
2022-11-26T12:56:16.399Z,41.67
2022-11-26T12:57:39.331Z,48.78
2022-11-26T12:59:03.468Z,49.30
2022-11-26T13:00:32.725Z,40.92
2022-11-26T13:01:57.007Z,34.75
2022-11-26T13:03:18.757Z,40.13
2022-11-26T13:04:39.485Z,41.97
2022-11-26T13:06:04.789Z,40.50
2022-11-26T13:07:40.886Z,36.40
2022-11-26T13:09:12.100Z,40.70
2022-11-26T13:10:53.139Z,35.25
2022-11-26T13:12:18.076Z,31.65
2022-11-26T13:13:43.955Z,33.67
2022-11-26T13:15:07.309Z,45.83
2022-11-26T13:16:31.701Z,40.67
2022-11-26T13:17:52.437Z,37.47
2022-11-26T13:19:22.019Z,42.80
2022-11-26T13:20:54.308Z,40.13
2022-11-26T13:23:56.003Z,30.10
2022-11-26T13:25:49.813Z,32.70
2022-11-26T13:27:27.244Z,34.50
2022-11-26T13:28:59.717Z,46.10
2022-11-26T13:30:21.170Z,36.20
2022-11-26T13:31:55.079Z,37.47
2022-11-26T13:33:49.603Z,41.85
2022-11-26T13:35:18.345Z,46.83
2022-11-26T13:36:57.687Z,30.90
2022-11-26T13:38:21.411Z,45.17
2022-11-26T13:40:01.766Z,41.13
2022-11-26T13:41:33.269Z,35.42
2022-11-26T13:45:02.505Z,32.10
2022-11-26T13:46:25.101Z,37.13
2022-11-26T13:47:47.815Z,32.75
2022-11-26T13:49:11.828Z,41.17
2022-11-26T13:50:35.223Z,35.58
2022-11-26T13:51:59.227Z,42.67
2022-11-26T13:53:26.577Z,43.90
2022-11-26T13:54:50.465Z,36.42
2022-11-26T13:56:11.425Z,29.13
2022-11-26T13:57:39.956Z,38.72
2022-11-26T13:59:05.817Z,35.92
2022-11-26T14:00:28.789Z,35.75
2022-11-26T14:01:49.649Z,34.05
2022-11-26T14:03:44.030Z,31.17
2022-11-26T14:05:06.773Z,32.03
2022-11-26T14:06:27.099Z,40.10
2022-11-26T14:07:47.468Z,27.77
2022-11-26T14:09:45.729Z,39.00
2022-11-26T14:11:06.887Z,33.33
2022-11-26T14:13:00.339Z,32.10
2022-11-26T14:14:36.912Z,32.50
2022-11-26T14:15:59.927Z,33.53
2022-11-26T14:17:25.103Z,34.88
2022-11-26T14:18:57.027Z,33.72
2022-11-26T14:21:58.584Z,25.52
2022-11-26T14:23:43.614Z,28.27
2022-11-26T14:25:09.620Z,27.65
2022-11-26T14:26:32.409Z,32.92
2022-11-26T14:27:54.945Z,30.42
2022-11-26T14:29:15.844Z,29.08
2022-11-26T14:30:37.885Z,31.27
2022-11-26T14:31:58.263Z,39.33
2022-11-26T14:33:24.113Z,30.40
2022-11-26T14:34:49.342Z,33.53
2022-11-26T14:36:19.520Z,30.98
2022-11-26T14:37:51.254Z,31.60
2022-11-26T14:39:15.739Z,32.53
2022-11-26T14:40:38.027Z,35.20
2022-11-26T14:42:05.651Z,38.42
2022-11-26T14:43:26.865Z,28.20
2022-11-26T14:44:47.174Z,33.17
2022-11-26T14:46:13.452Z,33.35
2022-11-26T14:47:33.929Z,32.55
2022-11-26T14:48:59.661Z,27.73
2022-11-26T14:50:23.972Z,23.00
2022-11-26T14:51:44.923Z,35.33
2022-11-26T14:53:06.155Z,22.65
2022-11-26T14:54:30.654Z,28.13
2022-11-26T14:55:52.196Z,32.05
2022-11-26T14:57:15.096Z,29.33
2022-11-26T14:58:38.156Z,25.75
2022-11-26T15:00:00.047Z,32.53
2022-11-26T15:01:23.320Z,34.15
2022-11-26T15:02:45.404Z,31.02
2022-11-26T15:04:07.205Z,29.13
2022-11-26T15:05:29.249Z,37.92
2022-11-26T15:06:49.893Z,28.17
2022-11-26T15:08:16.720Z,34.63
2022-11-26T15:09:37.440Z,31.38
2022-11-26T15:11:02.663Z,32.22
2022-11-26T15:12:23.145Z,33.97
2022-11-26T15:13:45.243Z,31.10
2022-11-26T15:15:06.812Z,34.72
2022-11-26T15:16:32.279Z,30.27
2022-11-26T15:17:55.919Z,30.48
2022-11-26T15:19:16.449Z,34.53
2022-11-26T15:20:36.693Z,29.38
2022-11-26T15:21:57.044Z,31.52
2022-11-26T15:23:18.998Z,35.10
2022-11-26T15:24:40.714Z,32.70
2022-11-26T15:26:03.137Z,38.47
2022-11-26T15:27:28.163Z,30.13
2022-11-26T15:28:49.474Z,33.40
2022-11-26T15:30:19.857Z,33.97
2022-11-26T15:31:42.735Z,29.17
2022-11-26T15:33:04.433Z,42.35
2022-11-26T15:34:25.013Z,34.92
2022-11-26T15:35:45.327Z,29.83
2022-11-26T15:37:06.401Z,28.90
2022-11-26T15:38:28.708Z,35.63
2022-11-26T15:40:07.496Z,33.28
2022-11-26T15:41:28.149Z,38.15
2022-11-26T15:42:49.914Z,44.08
2022-11-26T15:44:20.244Z,33.17
2022-11-26T15:45:41.157Z,37.33
2022-11-26T15:47:03.102Z,28.08
2022-11-26T15:48:50.087Z,36.33
2022-11-26T15:50:19.000Z,27.95
2022-11-26T15:51:42.425Z,32.67
2022-11-26T15:53:05.821Z,29.20
2022-11-26T15:54:43.338Z,29.25
2022-11-26T15:56:04.841Z,32.45
2022-11-26T15:57:28.353Z,33.65
2022-11-26T15:58:52.212Z,33.65
2022-11-26T16:00:21.444Z,26.88
2022-11-26T16:01:44.624Z,33.33
2022-11-26T16:03:33.907Z,28.80
2022-11-26T16:04:55.323Z,31.77
2022-11-26T16:07:56.883Z,38.45
2022-11-26T16:09:27.953Z,28.95
2022-11-26T16:10:54.931Z,30.23
2022-11-26T16:12:30.410Z,27.08
2022-11-26T16:13:51.019Z,28.92
2022-11-26T16:15:22.201Z,27.10
2022-11-26T16:16:42.491Z,26.85
2022-11-26T16:18:11.860Z,33.50
2022-11-26T16:19:33.020Z,33.10
2022-11-26T16:21:02.335Z,23.25
2022-11-26T16:22:28.301Z,31.05
2022-11-26T16:23:52.166Z,37.28
2022-11-26T16:25:20.523Z,30.50
2022-11-26T16:26:53.493Z,33.60
2022-11-26T16:28:15.064Z,35.50
2022-11-26T16:29:35.549Z,26.38
2022-11-26T16:30:56.290Z,29.58
2022-11-26T16:32:17.656Z,32.67
2022-11-26T16:33:39.988Z,32.42
2022-11-26T16:35:12.262Z,35.47
2022-11-26T16:36:42.296Z,45.80
2022-11-26T16:38:02.820Z,40.67
2022-11-26T16:39:27.427Z,34.45
2022-11-26T16:40:51.032Z,33.80
2022-11-26T16:42:14.273Z,42.40
2022-11-26T16:43:34.873Z,44.88
2022-11-26T16:44:57.983Z,33.20
2022-11-26T16:46:22.284Z,37.90
2022-11-26T16:47:45.562Z,35.92
2022-11-26T16:49:07.377Z,41.90
2022-11-26T16:50:28.179Z,36.22
2022-11-26T16:51:48.661Z,32.95
2022-11-26T16:53:09.640Z,32.85
2022-11-26T16:54:30.022Z,37.65
2022-11-26T16:55:50.851Z,39.15
2022-11-26T16:57:14.468Z,35.40
2022-11-26T16:58:36.496Z,40.50
2022-11-26T17:00:02.616Z,28.23
2022-11-26T17:01:22.853Z,33.60
2022-11-26T17:02:43.803Z,38.50
2022-11-26T17:04:04.158Z,40.17
2022-11-26T17:05:26.097Z,35.00
2022-11-26T17:06:46.963Z,38.05
2022-11-26T17:08:11.111Z,29.98
2022-11-26T17:09:31.815Z,46.80
2022-11-26T17:10:52.759Z,37.33
2022-11-26T17:12:17.364Z,40.22
2022-11-26T17:13:37.596Z,34.95
2022-11-26T17:14:58.159Z,41.42
2022-11-26T17:16:20.628Z,33.15
2022-11-26T17:17:41.812Z,39.28
2022-11-26T17:19:02.377Z,35.65
2022-11-26T17:20:24.153Z,45.53
2022-11-26T17:21:45.853Z,45.10
2022-11-26T17:23:06.472Z,42.15
2022-11-26T17:24:30.000Z,41.05
2022-11-26T17:25:53.761Z,38.78
2022-11-26T17:27:16.773Z,36.72
2022-11-26T17:28:37.223Z,37.13
2022-11-26T17:29:57.596Z,31.60
2022-11-26T17:31:18.238Z,43.28
2022-11-26T17:32:38.745Z,33.17
2022-11-26T17:33:59.236Z,43.05
2022-11-26T17:35:19.932Z,38.88
2022-11-26T17:36:40.356Z,31.98
2022-11-26T17:38:02.621Z,38.93
2022-11-26T17:39:22.948Z,36.20
2022-11-26T17:40:43.551Z,30.85
2022-11-26T17:42:04.240Z,40.33
2022-11-26T17:43:24.482Z,37.20
2022-11-26T17:44:45.028Z,42.65
2022-11-26T17:46:08.697Z,33.28
2022-11-26T17:47:29.397Z,37.30
2022-11-26T17:48:54.420Z,31.40
2022-11-26T17:50:21.406Z,33.53
2022-11-26T17:51:42.018Z,41.30
2022-11-26T17:53:03.601Z,36.85
2022-11-26T17:54:24.256Z,38.65
2022-11-26T17:55:44.910Z,42.07
2022-11-26T17:57:06.389Z,39.65
2022-11-26T17:58:26.932Z,40.83
2022-11-26T17:59:47.356Z,33.85
2022-11-26T18:01:08.062Z,39.22
2022-11-26T18:02:28.950Z,37.30
2022-11-26T18:03:49.226Z,36.92
2022-11-26T18:05:09.979Z,31.20
2022-11-26T18:06:37.281Z,38.83
2022-11-26T18:07:58.013Z,28.75
2022-11-26T18:09:20.450Z,40.97
2022-11-26T18:10:40.804Z,40.63
2022-11-26T18:12:01.381Z,35.70
2022-11-26T18:13:21.645Z,37.63
2022-11-26T18:14:42.432Z,43.00
2022-11-26T18:16:03.883Z,35.28
2022-11-26T18:17:24.990Z,39.22
2022-11-26T18:18:45.447Z,35.67